Time;durP1;ratioP1;P1;durP2;ratioP2;P2;SDS_P1;SDS_P2;PMS_P1;PMS_P2;Temp;Humidity;BMP_temperature;BMP_pressure;BME280_temperature;BME280_humidity;BME280_pressure;Samples;Min_cycle;Max_cycle;Signal;HPM_P1;HPM_P2
2022/07/15 00:00:25;;;;;;;1.85;1.20;;;;;;;25.71;28.92;101731.34;4971170;28;20089;-74
2022/07/15 00:02:53;;;;;;;2.38;1.50;;;;;;;25.68;29.10;101731.75;4990701;28;20046;-74
2022/07/15 00:05:23;;;;;;;2.80;1.52;;;;;;;25.69;28.97;101740.94;4972713;28;20038;-74
2022/07/15 00:07:51;;;;;;;3.42;1.45;;;;;;;25.64;29.18;101738.69;4973689;28;20050;-74
2022/07/15 00:10:21;;;;;;;3.53;1.50;;;;;;;25.62;28.81;101745.47;4990092;28;20042;-74
2022/07/15 00:12:50;;;;;;;3.85;1.30;;;;;;;25.60;28.67;101739.25;4990525;28;20057;-74
2022/07/15 00:15:20;;;;;;;2.35;1.13;;;;;;;25.57;28.94;101745.13;4989227;28;20453;-74
2022/07/15 00:17:49;;;;;;;2.85;1.40;;;;;;;25.53;28.91;101740.97;4985693;28;20556;-74
2022/07/15 00:20:18;;;;;;;3.33;1.30;;;;;;;25.49;29.29;101742.38;4990116;28;20081;-74
2022/07/15 00:22:48;;;;;;;3.20;1.48;;;;;;;25.46;29.35;101735.25;4990441;28;20042;-74
2022/07/15 00:25:16;;;;;;;3.60;1.40;;;;;;;25.42;29.24;101738.56;4989437;28;20128;-74
2022/07/15 00:27:53;;;;;;;4.03;1.50;;;;;;;25.40;29.70;101741.53;4974740;28;20070;-74
2022/07/15 00:30:22;;;;;;;2.42;1.30;;;;;;;25.32;28.91;101739.63;4989080;28;20046;-74
2022/07/15 00:32:51;;;;;;;3.10;1.50;;;;;;;25.28;29.27;101737.41;4971856;28;20441;-74
2022/07/15 00:35:19;;;;;;;3.28;1.30;;;;;;;25.26;29.09;101736.69;4972095;28;20046;-73
2022/07/15 00:37:49;;;;;;;2.63;1.20;;;;;;;25.25;29.17;101730.25;4990605;28;20548;-74
2022/07/15 00:40:18;;;;;;;4.30;1.40;;;;;;;25.20;29.20;101734.63;4989166;28;20034;-74
2022/07/15 00:42:46;;;;;;;3.45;1.20;;;;;;;25.17;29.31;101733.06;4989650;28;20107;-74
2022/07/15 00:45:16;;;;;;;2.90;1.15;;;;;;;25.17;29.84;101738.63;4968512;28;20074;-74
2022/07/15 00:47:45;;;;;;;3.58;1.40;;;;;;;25.14;29.34;101736.19;4990854;28;20046;-74
2022/07/15 00:50:14;;;;;;;2.78;1.20;;;;;;;25.11;29.90;101736.56;4971775;28;20054;-74
2022/07/15 00:52:45;;;;;;;3.13;1.45;;;;;;;25.10;29.46;101734.81;4989768;28;20125;-74
2022/07/15 00:55:15;;;;;;;3.83;1.48;;;;;;;25.08;29.41;101747.13;4971249;28;20074;-74
2022/07/15 00:57:45;;;;;;;4.55;1.30;;;;;;;25.04;29.54;101737.44;4989667;28;20046;-74
2022/07/15 01:00:14;;;;;;;2.45;1.27;;;;;;;25.01;29.50;101745.06;4971084;28;20081;-74
2022/07/15 01:02:50;;;;;;;3.92;1.80;;;;;;;24.97;29.54;101738.09;4972311;28;20042;-73
2022/07/15 01:05:21;;;;;;;3.75;1.50;;;;;;;24.94;29.55;101738.47;4989212;28;20042;-73
2022/07/15 01:07:50;;;;;;;3.28;1.30;;;;;;;24.92;29.92;101740.56;4972982;28;20462;-74
2022/07/15 01:10:22;;;;;;;3.38;1.25;;;;;;;24.93;30.00;101749.75;4971561;28;20066;-74
2022/07/15 01:12:52;;;;;;;2.70;1.30;;;;;;;24.88;30.18;101752.13;4969309;28;20057;-74
2022/07/15 01:15:26;;;;;;;2.78;1.27;;;;;;;24.86;29.79;101743.13;4968532;28;20051;-74
2022/07/15 01:17:59;;;;;;;3.65;1.25;;;;;;;24.84;30.29;101751.63;4986053;28;20043;-74
2022/07/15 01:20:27;;;;;;;4.45;1.20;;;;;;;24.81;30.26;101751.09;4971836;28;20379;-74
2022/07/15 01:23:00;;;;;;;3.15;1.67;;;;;;;24.83;30.35;101755.44;4971742;28;20047;-74
2022/07/15 01:25:36;;;;;;;3.17;1.30;;;;;;;24.78;30.34;101754.25;4971489;28;20070;-74
2022/07/15 01:28:09;;;;;;;;;;;;;;;24.49;30.21;101741.72;4972739;28;20069;-74
2022/07/15 01:30:38;;;;;;;3.22;1.10;;;;;;;24.72;30.43;101752.13;4970710;28;19980;-74
2022/07/15 01:33:07;;;;;;;4.20;1.27;;;;;;;24.73;29.93;101751.09;4972040;28;20050;-74
2022/07/15 01:35:35;;;;;;;2.60;1.20;;;;;;;24.72;29.97;101752.13;4971597;28;20085;-74
2022/07/15 01:38:04;;;;;;;3.92;1.30;;;;;;;24.72;30.06;101752.13;4975979;28;20073;-74
2022/07/15 01:40:32;;;;;;;2.67;1.25;;;;;;;24.65;30.07;101750.06;4971406;28;20057;-74
2022/07/15 01:43:01;;;;;;;2.40;1.40;;;;;;;24.63;30.41;101749.34;4972134;28;20046;-73
2022/07/15 01:45:29;;;;;;;2.72;1.27;;;;;;;24.63;30.56;101754.03;4971326;28;20046;-74
2022/07/15 01:47:58;;;;;;;4.55;1.40;;;;;;;24.61;30.32;101756.16;4969474;28;20043;-74
2022/07/15 01:50:44;;;;;;;2.97;1.30;;;;;;;24.57;30.46;101752.84;4987547;28;20049;-74
2022/07/15 01:53:17;;;;;;;3.85;1.48;;;;;;;24.58;30.57;101751.78;4973861;28;20162;-74
2022/07/15 01:55:46;;;;;;;4.07;1.40;;;;;;;24.57;30.94;101763.06;4975335;28;20046;-74
2022/07/15 01:58:15;;;;;;;2.85;1.23;;;;;;;24.55;31.01;101754.91;4974978;28;20038;-74
2022/07/15 02:00:44;;;;;;;3.30;1.48;;;;;;;24.55;30.99;101760.47;4974457;28;20042;-74
2022/07/15 02:03:12;;;;;;;2.45;1.17;;;;;;;24.55;31.19;101757.69;4974674;28;20054;-74
2022/07/15 02:05:40;;;;;;;3.95;1.70;;;;;;;24.54;30.72;101764.28;4983185;28;20057;-74
2022/07/15 02:08:09;;;;;;;3.45;1.20;;;;;;;24.55;30.53;101767.91;4975671;28;20049;-74
2022/07/15 02:10:44;;;;;;;3.58;1.40;;;;;;;24.56;30.69;101764.09;4972051;28;20050;-74
2022/07/15 02:13:18;;;;;;;2.65;1.35;;;;;;;24.55;31.24;101759.59;4971536;28;20069;-74
2022/07/15 02:15:54;;;;;;;2.90;1.33;;;;;;;24.54;30.87;101757.88;4974794;28;20348;-74
2022/07/15 02:18:22;;;;;;;3.80;1.33;;;;;;;24.54;30.76;101755.94;4972109;28;20050;-74
2022/07/15 02:20:51;;;;;;;2.90;1.60;;;;;;;24.54;31.06;101752.31;4971858;28;20455;-74
2022/07/15 02:23:19;;;;;;;3.35;1.40;;;;;;;24.54;31.49;101757.88;4985836;28;20061;-73
2022/07/15 02:25:49;;;;;;;3.85;1.50;;;;;;;24.55;31.27;101754.91;4974661;28;20046;-74
2022/07/15 02:28:23;;;;;;;3.95;1.38;;;;;;;24.54;30.78;101761.50;4981090;28;20046;-74
2022/07/15 02:30:52;;;;;;;3.85;1.60;;;;;;;24.53;30.79;101751.47;4974380;28;20424;-74
2022/07/15 02:33:20;;;;;;;3.92;1.67;;;;;;;24.54;31.10;101757.88;4973930;28;20102;-74
2022/07/15 02:35:48;;;;;;;4.22;1.35;;;;;;;24.55;31.02;101754.03;4974890;28;20049;-74
2022/07/15 02:38:17;;;;;;;4.30;1.42;;;;;;;24.54;31.04;101746.78;4992234;28;20034;-74
2022/07/15 02:40:45;;;;;;;4.07;1.70;;;;;;;24.53;31.55;101751.47;4975101;28;20152;-74
2022/07/15 02:43:15;;;;;;;3.65;1.63;;;;;;;24.56;31.16;101750.22;4974207;28;20062;-74
2022/07/15 02:45:45;;;;;;;4.38;2.03;;;;;;;24.54;31.71;101747.59;4973918;28;20049;-74
2022/07/15 02:48:17;;;;;;;3.35;1.75;;;;;;;24.52;31.50;101746.06;4974899;28;20043;-75
2022/07/15 02:50:47;;;;;;;4.93;1.70;;;;;;;24.52;31.59;101755.28;4974426;28;20108;-74
2022/07/15 02:53:18;;;;;;;5.30;1.58;;;;;;;24.53;31.76;101754.22;4973738;28;20491;-74
2022/07/15 02:55:48;;;;;;;4.60;1.55;;;;;;;24.52;31.32;101751.63;4974744;28;20046;-74
2022/07/15 02:58:18;;;;;;;4.07;1.50;;;;;;;24.52;31.70;101752.50;4989338;28;20092;-74
2022/07/15 03:00:49;;;;;;;;;;;;;;;24.22;31.52;101758.66;4973845;28;20062;-74
2022/07/15 03:03:18;;;;;;;2.88;1.15;;;;;;;24.44;31.34;101765.50;4999157;28;19946;-75
2022/07/15 03:05:47;;;;;;;3.05;1.50;;;;;;;24.42;31.00;101768.44;4973695;28;20073;-74
2022/07/15 03:08:15;;;;;;;3.72;1.40;;;;;;;24.42;31.65;101770.34;4974122;28;20305;-74
2022/07/15 03:10:43;;;;;;;3.38;1.30;;;;;;;24.40;31.28;101775.19;4974614;28;20062;-74
2022/07/15 03:13:11;;;;;;;4.07;1.83;;;;;;;24.37;31.17;101778.31;4973252;28;20042;-74
2022/07/15 03:15:41;;;;;;;4.00;1.55;;;;;;;24.36;31.23;101788.56;4973665;28;20050;-74
2022/07/15 03:18:09;;;;;;;2.17;1.30;;;;;;;24.31;31.42;101777.06;4974724;28;20401;-74
2022/07/15 03:20:38;;;;;;;5.18;1.55;;;;;;;24.31;31.91;101781.75;4991536;28;20129;-74
2022/07/15 03:23:10;;;;;;;3.42;1.48;;;;;;;24.26;31.85;101791.47;4991181;28;20042;-74
2022/07/15 03:25:38;;;;;;;2.90;1.38;;;;;;;24.26;31.92;101788.69;4989795;28;20531;-74
2022/07/15 03:28:10;;;;;;;3.20;1.70;;;;;;;24.22;32.19;101795.59;4973800;28;20417;-74
2022/07/15 03:30:41;;;;;;;4.47;1.63;;;;;;;24.24;32.16;101799.09;4971749;28;20051;-74
2022/07/15 03:33:12;;;;;;;4.10;1.55;;;;;;;24.20;32.45;101800.47;4962029;28;20050;-75
2022/07/15 03:35:42;;;;;;;3.95;1.80;;;;;;;24.21;31.85;101793.03;4978176;28;20552;-74
2022/07/15 03:38:11;;;;;;;5.65;2.00;;;;;;;24.20;32.08;101802.34;5000055;28;20114;-75
2022/07/15 03:40:39;;;;;;;4.57;2.10;;;;;;;24.20;31.96;101802.34;4983914;28;20051;-73
2022/07/15 03:43:07;;;;;;;4.43;1.83;;;;;;;24.17;32.14;101800.78;4991714;28;20113;-74
2022/07/15 03:45:36;;;;;;;7.43;2.10;;;;;;;24.16;32.64;101810.13;4990469;28;20053;-74
2022/07/15 03:48:06;;;;;;;3.90;1.80;;;;;;;24.17;32.20;101809.09;4990783;28;20057;-74
2022/07/15 03:50:36;;;;;;;4.60;2.27;;;;;;;24.12;32.52;101814.28;4973098;28;20082;-74
2022/07/15 03:53:04;;;;;;;3.58;1.80;;;;;;;24.11;32.47;101812.53;4983229;28;20062;-74
2022/07/15 03:55:32;;;;;;;3.03;1.73;;;;;;;24.10;32.52;101821.91;5000867;28;20070;-74
2022/07/15 03:58:00;;;;;;;4.22;2.00;;;;;;;24.09;32.34;101817.38;4990718;28;20042;-74
2022/07/15 04:00:28;;;;;;;4.40;2.08;;;;;;;24.07;32.56;101821.34;4989283;28;20061;-74
2022/07/15 04:02:58;;;;;;;4.30;1.75;;;;;;;24.05;32.71;101823.44;4973387;28;20453;-74
2022/07/15 04:05:27;;;;;;;3.97;1.83;;;;;;;24.07;33.01;101825.00;4988725;28;20445;-74
2022/07/15 04:07:56;;;;;;;5.47;1.85;;;;;;;24.02;32.68;101830.19;4991428;28;20061;-74
2022/07/15 04:10:26;;;;;;;4.85;2.08;;;;;;;24.01;32.78;101835.91;4972661;28;20073;-74
2022/07/15 04:12:54;;;;;;;3.80;2.00;;;;;;;23.99;33.17;101835.19;4989256;28;20050;-74
2022/07/15 04:15:22;;;;;;;3.45;1.75;;;;;;;23.99;33.17;101835.19;4971818;28;20517;-74
2022/07/15 04:17:50;;;;;;;4.25;1.80;;;;;;;23.97;32.93;101829.81;4990860;28;20034;-74
2022/07/15 04:20:21;;;;;;;4.18;2.05;;;;;;;23.96;33.25;101835.53;4972149;28;20074;-74
2022/07/15 04:22:54;;;;;;;4.07;1.95;;;;;;;23.99;32.92;101837.97;4972990;28;20056;-74
2022/07/15 04:25:23;;;;;;;3.00;1.67;;;;;;;23.97;32.77;101842.81;4975449;28;20387;-74
2022/07/15 04:27:52;;;;;;;3.22;1.80;;;;;;;23.95;33.23;101840.22;4989162;28;20046;-74
2022/07/15 04:30:25;;;;;;;3.75;1.90;;;;;;;23.96;33.43;101849.41;4989097;28;20038;-74
2022/07/15 04:32:53;;;;;;;4.13;1.98;;;;;;;23.97;33.38;101842.81;4990030;28;20038;-74
2022/07/15 04:35:25;;;;;;;4.68;2.00;;;;;;;23.98;33.41;101850.09;4971485;28;20701;-74
2022/07/15 04:38:20;;;;;;;4.30;2.00;;;;;;;23.98;33.12;101848.19;4979662;28;20386;-75
2022/07/15 04:40:48;;;;;;;4.93;2.00;;;;;;;23.98;33.09;101850.09;4972846;28;20421;-74
2022/07/15 04:43:19;;;;;;;4.90;2.00;;;;;;;23.99;33.66;101854.59;4972165;28;20042;-74
2022/07/15 04:45:48;;;;;;;5.43;2.08;;;;;;;24.00;33.62;101860.00;4971559;28;20046;-74
2022/07/15 04:51:06;;;;;;;5.35;1.80;;;;;;;24.02;33.26;101863.50;4971910;28;20054;-74
2022/07/15 04:53:36;;;;;;;3.45;1.90;;;;;;;24.05;33.28;101865.06;4971544;28;20117;-75
2022/07/15 04:56:05;;;;;;;4.20;1.90;;;;;;;24.05;33.80;101867.84;4969544;28;20047;-74
2022/07/15 04:58:35;;;;;;;4.00;2.33;;;;;;;24.07;33.68;101874.94;4989294;28;20101;-74
2022/07/15 05:01:06;;;;;;;3.50;2.00;;;;;;;24.08;33.26;101875.81;4980804;28;20046;-74
2022/07/15 05:03:34;;;;;;;3.65;1.85;;;;;;;24.11;33.86;101868.03;4988550;28;20433;-75
2022/07/15 05:06:03;;;;;;;4.88;2.05;;;;;;;24.12;33.36;101875.34;4964609;28;20053;-74
2022/07/15 05:08:36;;;;;;;4.78;2.03;;;;;;;24.16;34.11;101870.31;4972420;28;20464;-74
2022/07/15 05:11:05;;;;;;;3.50;1.85;;;;;;;24.18;34.41;101873.78;4972116;28;20070;-74
2022/07/15 05:13:33;;;;;;;4.28;2.10;;;;;;;24.24;34.14;101874.03;4985408;28;20101;-74
2022/07/15 05:16:01;;;;;;;5.68;2.10;;;;;;;24.37;34.38;101862.47;4965122;28;20074;-74
2022/07/15 05:18:30;;;;;;;5.72;2.30;;;;;;;24.52;33.99;101871.00;4972400;28;20093;-74
2022/07/15 05:21:01;;;;;;;4.13;1.88;;;;;;;24.69;33.85;101875.56;4972600;28;20413;-74
2022/07/15 05:23:35;;;;;;;3.55;1.70;;;;;;;24.86;33.81;101876.47;4972322;28;20045;-74
2022/07/15 05:26:07;;;;;;;3.40;1.80;;;;;;;25.05;33.72;101873.41;4971166;28;20054;-75
2022/07/15 05:28:38;;;;;;;3.90;2.00;;;;;;;25.17;33.39;101871.16;4992468;28;20109;-74
2022/07/15 05:31:06;;;;;;;4.78;1.83;;;;;;;25.35;32.98;101872.72;4973746;28;20047;-74
2022/07/15 05:33:35;;;;;;;4.75;2.05;;;;;;;25.52;33.16;101878.28;4953213;29;20510;-75
2022/07/15 05:36:20;;;;;;;5.72;1.95;;;;;;;25.68;32.54;101876.38;4990972;28;20054;-75
2022/07/15 05:38:49;;;;;;;4.95;1.83;;;;;;;25.85;32.51;101868.00;4974969;28;20129;-74
2022/07/15 05:41:20;;;;;;;4.03;1.75;;;;;;;26.05;32.43;101880.44;4972803;28;20294;-74
2022/07/15 05:43:48;;;;;;;4.93;2.03;;;;;;;26.20;32.37;101875.88;4986454;28;20046;-75
2022/07/15 05:46:17;;;;;;;4.53;2.05;;;;;;;26.34;31.82;101871.53;4991681;28;20444;-74
2022/07/15 05:48:50;;;;;;;4.35;1.77;;;;;;;26.47;31.98;101877.38;4975529;28;20034;-75
2022/07/15 05:51:19;;;;;;;3.83;1.58;;;;;;;26.60;31.35;101882.38;4993212;28;20045;-74
2022/07/15 05:53:48;;;;;;;3.75;1.60;;;;;;;26.69;31.61;101876.53;4942749;28;20047;-75
2022/07/15 05:56:16;;;;;;;4.70;1.75;;;;;;;26.78;31.11;101880.13;4976124;28;20046;-74
2022/07/15 05:58:45;;;;;;;3.45;1.60;;;;;;;26.88;30.58;101878.00;4991571;28;20605;-75
2022/07/15 06:01:15;;;;;;;6.60;2.10;;;;;;;26.91;30.88;101876.81;4974480;28;20070;-75
2022/07/15 06:03:44;;;;;;;6.43;2.20;;;;;;;26.97;30.54;101878.84;4992707;28;20513;-75
2022/07/15 06:06:12;;;;;;;5.00;1.83;;;;;;;27.01;29.97;101883.00;4977642;28;20121;-75
2022/07/15 06:08:40;;;;;;;4.55;1.90;;;;;;;27.05;30.31;101881.56;4975692;28;20550;-74
2022/07/15 06:11:11;;;;;;;4.00;1.60;;;;;;;27.06;30.19;101874.94;4977409;28;20057;-76
2022/07/15 06:13:41;;;;;;;5.13;1.75;;;;;;;27.13;29.92;101879.59;4962508;28;20043;-76
2022/07/15 06:16:12;;;;;;;3.92;1.40;;;;;;;27.20;29.80;101885.28;4975678;28;20054;-78
2022/07/15 06:18:40;;;;;;;2.92;1.25;;;;;;;27.21;29.58;101881.44;4993567;28;20042;-77
2022/07/15 06:21:09;;;;;;;6.00;1.42;;;;;;;27.25;29.28;101882.81;4974825;28;20453;-77
2022/07/15 06:23:37;;;;;;;6.82;1.40;;;;;;;27.25;28.85;101877.25;4975180;28;20464;-76
2022/07/15 06:26:06;;;;;;;3.80;1.33;;;;;;;27.27;29.08;101880.69;4976085;28;20046;-77
2022/07/15 06:28:34;;;;;;;4.18;1.40;;;;;;;27.27;29.29;101884.34;4972251;28;20086;-77
2022/07/15 06:31:02;;;;;;;2.35;1.15;;;;;;;27.31;29.09;101875.63;4984668;28;20057;-77
2022/07/15 06:33:34;;;;;;;3.78;1.30;;;;;;;27.37;29.32;101884.09;4981400;28;20074;-78
2022/07/15 06:36:05;;;;;;;4.18;1.52;;;;;;;27.39;29.20;101882.00;4974874;28;20046;-76
2022/07/15 06:38:35;;;;;;;2.67;1.20;;;;;;;27.48;29.04;101880.88;4977484;28;20052;-76
2022/07/15 06:41:03;;;;;;;3.25;1.40;;;;;;;27.56;29.32;101875.25;4991776;28;20047;-76
2022/07/15 06:43:31;;;;;;;3.42;1.40;;;;;;;27.66;28.96;101879.69;4974799;28;20156;-76
2022/07/15 06:46:24;;;;;;;3.17;1.13;;;;;;;27.75;28.75;101873.84;4974792;28;20058;-76
2022/07/15 06:48:54;;;;;;;4.05;1.30;;;;;;;27.88;28.25;101879.63;4991613;28;20081;-76
2022/07/15 06:51:22;;;;;;;3.22;1.15;;;;;;;27.97;28.26;101883.19;4974910;28;20493;-76
2022/07/15 06:53:52;;;;;;;3.03;1.20;;;;;;;28.08;27.90;101881.88;4974208;28;20121;-75
2022/07/15 06:56:23;;;;;;;2.75;1.10;;;;;;;28.17;27.92;101884.38;4982483;28;20042;-77
2022/07/15 06:58:52;;;;;;;2.58;1.13;;;;;;;28.23;27.50;101883.63;4975413;28;20042;-77
2022/07/15 07:01:20;;;;;;;2.95;1.00;;;;;;;28.34;27.47;101882.25;4974806;28;20409;-76
2022/07/15 07:03:48;;;;;;;2.55;1.08;;;;;;;28.41;26.90;101876.78;4983143;28;20397;-77
2022/07/15 07:06:28;;;;;;;3.75;1.40;;;;;;;28.49;26.87;101877.53;4992509;28;20038;-75
2022/07/15 07:08:56;;;;;;;3.20;1.00;;;;;;;28.51;26.92;101867.00;4990540;28;20053;-76
2022/07/15 07:11:24;;;;;;;3.03;1.13;;;;;;;28.55;26.80;101875.88;4989224;28;20073;-75
2022/07/15 07:13:53;;;;;;;2.97;1.20;;;;;;;28.58;26.74;101884.72;4979285;28;20050;-75
2022/07/15 07:16:21;;;;;;;4.40;1.40;;;;;;;28.61;26.57;101887.13;4991905;28;20556;-73
2022/07/15 07:18:50;;;;;;;4.68;1.30;;;;;;;28.64;26.86;101891.47;4964896;28;20050;-73
2022/07/15 07:21:19;;;;;;;6.07;1.30;;;;;;;28.68;26.71;101882.47;4983803;28;20050;-73
2022/07/15 07:23:56;;;;;;;3.67;1.27;;;;;;;28.74;26.51;101892.88;4991597;28;20134;-73
2022/07/15 07:26:24;;;;;;;3.72;1.20;;;;;;;28.76;26.21;101887.13;4992117;28;20129;-73
2022/07/15 07:28:52;;;;;;;3.35;1.23;;;;;;;28.79;26.36;101892.34;4990280;28;20046;-73
2022/07/15 07:31:25;;;;;;;3.50;1.50;;;;;;;28.83;26.33;101892.78;4988946;28;20073;-72
2022/07/15 07:33:55;;;;;;;2.60;1.10;;;;;;;28.89;26.28;101892.00;4990132;28;20136;-73
2022/07/15 07:36:23;;;;;;;4.70;1.30;;;;;;;28.94;26.18;101889.47;4991502;28;20056;-73
2022/07/15 07:38:51;;;;;;;2.33;1.08;;;;;;;29.00;25.87;101886.75;4990844;28;20042;-73
2022/07/15 07:41:20;;;;;;;4.05;1.50;;;;;;;29.07;25.97;101892.44;4991111;28;20158;-72
2022/07/15 07:43:48;;;;;;;3.33;1.50;;;;;;;29.09;25.74;101893.94;4995044;28;20038;-73
2022/07/15 07:46:17;;;;;;;4.55;1.50;;;;;;;29.13;25.64;101891.63;4991222;28;20038;-72
2022/07/15 07:48:46;;;;;;;4.38;1.92;;;;;;;29.12;25.62;101892.69;4990777;28;20046;-73
2022/07/15 07:51:14;;;;;;;5.20;2.22;;;;;;;29.09;25.49;101893.94;4991014;28;20524;-73
2022/07/15 07:53:42;;;;;;;4.03;2.63;;;;;;;29.04;25.14;101896.50;4990341;28;20050;-73
2022/07/15 07:56:10;;;;;;;4.90;2.53;;;;;;;28.98;25.05;101900.09;4990464;28;20163;-72
2022/07/15 07:58:40;;;;;;;5.22;2.50;;;;;;;28.92;25.00;101903.66;4987711;28;20050;-73
2022/07/15 08:01:08;;;;;;;4.57;2.90;;;;;;;28.81;25.10;101900.53;4990243;28;20046;-73
2022/07/15 08:03:36;;;;;;;6.20;2.72;;;;;;;28.69;25.12;101898.19;4990733;28;20469;-73
2022/07/15 08:06:04;;;;;;;6.22;2.83;;;;;;;28.58;25.49;101906.22;4982352;28;20046;-72
2022/07/15 08:08:32;;;;;;;5.43;2.95;;;;;;;28.47;25.17;101909.50;4990280;28;20209;-73
2022/07/15 08:11:00;;;;;;;4.70;2.88;;;;;;;28.35;25.07;101904.41;4989961;28;20536;-73
2022/07/15 08:13:29;;;;;;;4.97;2.85;;;;;;;28.26;25.29;101896.31;4988943;28;20137;-73
2022/07/15 08:15:58;;;;;;;4.88;2.50;;;;;;;28.19;25.59;101904.59;4995969;28;20410;-72
2022/07/15 08:18:36;;;;;;;4.68;2.42;;;;;;;28.07;25.68;101903.34;4990519;28;20538;-74
2022/07/15 08:21:04;;;;;;;5.10;2.45;;;;;;;28.02;25.63;101903.03;4990122;28;20054;-73
2022/07/15 08:23:33;;;;;;;4.13;2.13;;;;;;;27.96;25.54;101898.22;4990284;28;20058;-74
2022/07/15 08:26:01;;;;;;;4.15;1.80;;;;;;;27.88;25.70;101899.16;4995932;28;20027;-73
2022/07/15 08:28:30;;;;;;;3.97;2.05;;;;;;;27.83;25.40;101896.09;4991364;28;20386;-74
2022/07/15 08:31:20;;;;;;;3.70;1.77;;;;;;;27.80;25.53;101896.47;4983910;28;20057;-73
2022/07/15 08:33:49;;;;;;;3.67;1.70;;;;;;;27.75;25.64;101896.19;4983327;28;20057;-74
2022/07/15 08:36:17;;;;;;;4.93;1.85;;;;;;;27.73;25.63;101903.88;4990689;28;20034;-73
2022/07/15 08:38:46;;;;;;;2.78;1.65;;;;;;;27.72;25.89;101898.47;4972522;28;20038;-74
2022/07/15 08:41:16;;;;;;;4.10;1.80;;;;;;;27.74;25.94;101896.34;4989673;28;20496;-73
2022/07/15 08:43:45;;;;;;;4.10;1.58;;;;;;;27.75;25.87;101896.19;4989607;28;20444;-74
2022/07/15 08:46:15;;;;;;;3.50;1.40;;;;;;;27.78;26.21;101898.56;4978949;28;20564;-74
2022/07/15 08:48:50;;;;;;;4.63;1.70;;;;;;;27.82;25.72;101899.94;4989471;28;20050;-74
2022/07/15 08:51:23;;;;;;;3.22;1.50;;;;;;;27.85;25.93;101898.66;4979753;28;20042;-73
2022/07/15 08:53:54;;;;;;;3.25;1.73;;;;;;;27.86;25.68;101903.19;4989451;28;20038;-74
2022/07/15 08:56:23;;;;;;;2.92;1.20;;;;;;;27.89;25.63;101905.63;4964567;28;20038;-73
2022/07/15 08:58:51;;;;;;;4.47;1.52;;;;;;;27.93;25.79;101901.38;4987035;28;20047;-74
2022/07/15 09:01:28;;;;;;;3.20;1.45;;;;;;;27.96;25.56;101901.88;4988553;28;20074;-74
2022/07/15 09:03:59;;;;;;;3.97;1.40;;;;;;;28.02;25.74;101903.88;4976150;28;20066;-73
2022/07/15 09:06:34;;;;;;;3.67;1.50;;;;;;;28.09;25.35;101897.53;4990136;28;20035;-74
2022/07/15 09:09:29;;;;;;;4.13;1.20;;;;;;;28.13;25.58;101898.91;4989361;28;20141;-73
2022/07/15 09:12:01;;;;;;;3.53;1.30;;;;;;;28.20;25.84;101899.88;4989469;28;20093;-74
2022/07/15 09:14:42;;;;;;;3.38;1.52;;;;;;;28.31;25.89;101896.63;4988996;28;20053;-74
2022/07/15 09:17:25;;;;;;;5.82;1.88;;;;;;;28.39;25.31;101897.38;4990941;28;20046;-73
2022/07/15 09:20:05;;;;;;;2.85;1.20;;;;;;;28.49;24.73;101896.22;4986894;28;20065;-74
2022/07/15 09:22:47;;;;;;;2.45;0.88;;;;;;;28.56;25.38;101897.16;4971594;28;20456;-73
2022/07/15 09:25:16;;;;;;;2.75;1.10;;;;;;;28.59;24.97;101897.63;4989026;28;20073;-73
2022/07/15 09:27:45;;;;;;;1.48;0.80;;;;;;;28.69;24.83;101894.53;4989549;28;20077;-74
2022/07/15 09:36:05;;;;;;;2.22;0.70;;;;;;;28.75;24.48;101890.94;4987174;28;20042;-74
2022/07/15 09:38:40;;;;;;;1.35;0.60;;;;;;;28.77;24.47;101886.94;4971922;28;20054;-74
2022/07/15 09:41:09;;;;;;;1.20;0.80;;;;;;;28.83;23.98;101890.00;4971299;28;20129;-73
2022/07/15 09:43:49;;;;;;;1.17;0.52;;;;;;;28.92;23.58;101892.47;4989078;28;20533;-74
2022/07/15 09:46:19;;;;;;;2.08;0.73;;;;;;;28.96;23.62;101884.56;4971457;28;20043;-73
2022/07/15 09:48:49;;;;;;;1.80;0.73;;;;;;;29.03;23.34;101889.16;4989054;28;20520;-74
2022/07/15 09:51:20;;;;;;;2.25;0.80;;;;;;;29.11;22.77;101885.38;4989288;28;20081;-73
2022/07/15 09:53:50;;;;;;;2.88;0.52;;;;;;;29.13;22.99;101884.13;4987785;28;20058;-74
2022/07/15 09:56:26;;;;;;;2.88;0.80;;;;;;;29.20;22.64;101880.50;4971069;28;20061;-74
2022/07/15 09:58:54;;;;;;;2.72;0.90;;;;;;;29.23;22.74;101878.19;4988288;28;20093;-74
2022/07/15 10:01:22;;;;;;;2.53;0.90;;;;;;;29.28;22.98;101880.38;4967761;28;20073;-73
2022/07/15 10:03:51;;;;;;;2.47;0.82;;;;;;;29.32;22.83;101878.94;4988926;28;20043;-74
2022/07/15 10:06:22;;;;;;;2.63;0.80;;;;;;;29.36;22.54;101883.06;4988017;28;20030;-74
2022/07/15 10:08:51;;;;;;;2.65;1.15;;;;;;;29.35;22.90;101887.78;4988845;28;20105;-73
2022/07/15 10:11:19;;;;;;;2.83;0.80;;;;;;;29.38;22.60;101889.34;4988541;28;20520;-73
2022/07/15 10:14:24;;;;;;;2.92;1.00;;;;;;;29.35;22.39;101890.59;4972961;28;20057;-74
2022/07/15 10:17:31;;;;;;;1.88;0.73;;;;;;;29.39;22.37;101880.75;4992885;28;20551;-73
2022/07/15 10:20:18;;;;;;;1.77;0.80;;;;;;;29.41;21.89;101883.31;4983900;28;20064;-73
2022/07/15 10:22:58;;;;;;;1.95;0.73;;;;;;;29.42;21.88;101869.13;4988048;28;20074;-72
2022/07/15 10:25:48;;;;;;;2.33;0.95;;;;;;;29.42;21.93;101871.06;4991850;28;20409;-73
2022/07/15 10:28:21;;;;;;;2.50;0.80;;;;;;;29.41;22.27;101881.38;4979793;28;20053;-73
2022/07/15 10:31:18;;;;;;;3.95;1.27;;;;;;;29.40;22.62;101876.84;4992017;28;20046;-74
2022/07/15 10:34:17;;;;;;;3.95;1.10;;;;;;;29.44;22.37;101875.41;4973790;28;20034;-74
2022/07/15 10:37:06;;;;;;;3.10;1.10;;;;;;;29.50;22.45;101866.19;4992699;28;20122;-74
2022/07/15 10:39:57;;;;;;;5.22;1.55;;;;;;;29.54;22.44;101863.00;4978930;28;20555;-74
2022/07/15 10:42:25;;;;;;;8.63;1.85;;;;;;;29.59;22.73;101871.63;4992061;28;20085;-73
2022/07/15 10:45:06;;;;;;;5.53;1.35;;;;;;;29.68;21.89;101870.44;4973624;28;20053;-73
2022/07/15 10:47:36;;;;;;;3.55;0.90;;;;;;;29.71;22.22;101878.44;4992284;28;20054;-73
2022/07/15 10:50:39;;;;;;;5.57;1.70;;;;;;;29.70;22.04;101869.16;4991566;28;20054;-74
2022/07/15 10:53:17;;;;;;;;;;;;;;;29.42;22.98;101863.53;4991726;28;20050;-73
2022/07/15 10:55:46;;;;;;;1.30;0.70;;;;;;;29.70;22.20;101860.75;4977201;28;20376;-74
2022/07/15 10:58:17;;;;;;;3.03;0.70;;;;;;;29.72;22.43;101854.97;4991798;28;20042;-74
2022/07/15 11:00:47;;;;;;;2.80;0.90;;;;;;;29.75;21.97;101861.00;4973705;28;20141;-73
2022/07/15 11:03:19;;;;;;;5.18;1.20;;;;;;;29.76;21.85;101859.06;4989719;28;20039;-74
2022/07/15 11:06:06;;;;;;;4.03;0.90;;;;;;;29.72;21.90;101864.22;4983958;28;20138;-73
2022/07/15 11:08:49;;;;;;;3.28;1.05;;;;;;;29.70;22.19;101854.28;4989960;28;20039;-74
2022/07/15 11:11:45;;;;;;;1.65;0.63;;;;;;;29.65;22.20;101852.09;4990737;28;20054;-73
2022/07/15 11:14:59;;;;;;;2.28;0.73;;;;;;;29.62;22.18;101852.53;4968319;28;20054;-73
2022/07/15 11:17:41;;;;;;;1.58;0.73;;;;;;;29.59;22.43;101849.25;4957007;28;20413;-74
2022/07/15 11:20:12;;;;;;;1.50;0.70;;;;;;;29.58;22.13;101851.19;4991645;28;20355;-74
2022/07/15 11:22:43;;;;;;;2.10;0.70;;;;;;;29.52;22.64;101835.22;4990979;28;20046;-73
2022/07/15 11:25:18;;;;;;;1.77;0.77;;;;;;;29.55;22.35;101834.81;4989948;28;20645;-73
2022/07/15 11:28:00;;;;;;;1.63;0.80;;;;;;;29.56;22.38;101830.94;4991731;28;20042;-73
2022/07/15 11:30:32;;;;;;;1.77;0.68;;;;;;;29.54;22.47;101829.41;4989988;28;20054;-73
2022/07/15 11:33:02;;;;;;;;;;;;;;;29.29;23.11;101828.97;4991383;28;20038;-73
2022/07/15 11:35:31;;;;;;;12.05;2.33;;;;;;;29.62;22.37;101827.31;4973273;28;19926;-73
2022/07/15 11:38:01;;;;;;;15.63;2.70;;;;;;;29.68;22.74;101826.50;4973851;28;20046;-73
2022/07/15 11:46:06;;;;;;;1.75;0.80;;;;;;;29.80;22.51;101815.63;4990799;28;20057;-73
2022/07/15 11:48:40;;;;;;;3.55;1.00;;;;;;;29.88;22.16;101818.25;4990470;28;20062;-74
2022/07/15 11:51:11;;;;;;;1.85;0.70;;;;;;;29.91;22.11;101817.81;4976681;28;20054;-73
2022/07/15 11:53:42;;;;;;;1.80;0.70;;;;;;;29.93;22.37;101820.41;4990740;28;20060;-74
2022/07/15 11:56:12;;;;;;;2.47;0.90;;;;;;;29.94;22.43;101805.38;4991005;28;20062;-73
2022/07/15 11:58:43;;;;;;;2.08;0.65;;;;;;;29.99;22.35;101817.69;4989667;28;20054;-74
2022/07/15 12:01:13;;;;;;;2.03;0.85;;;;;;;30.03;22.23;101816.22;4989819;28;20054;-74